sensor_id;sensor_type;location;lat;lon;timestamp;P1;durP1;ratioP1;P2;durP2;ratioP2
23614;SDS011;11985;49.404;7.734;2023-07-13T00:00:44;5.50;;;1.77;;
23614;SDS011;11985;49.404;7.734;2023-07-13T00:05:45;8.50;;;1.58;;
23614;SDS011;11985;49.404;7.734;2023-07-13T00:10:49;6.18;;;1.70;;
23614;SDS011;11985;49.404;7.734;2023-07-13T00:15:54;3.75;;;1.55;;
23614;SDS011;11985;49.404;7.734;2023-07-13T00:20:56;5.72;;;1.88;;
23614;SDS011;11985;49.404;7.734;2023-07-13T00:26:07;3.60;;;1.63;;
23614;SDS011;11985;49.404;7.734;2023-07-13T00:31:10;4.28;;;1.80;;
23614;SDS011;11985;49.404;7.734;2023-07-13T00:36:14;5.55;;;2.28;;
23614;SDS011;11985;49.404;7.734;2023-07-13T00:41:17;5.35;;;1.75;;
23614;SDS011;11985;49.404;7.734;2023-07-13T00:46:23;8.10;;;2.13;;
23614;SDS011;11985;49.404;7.734;2023-07-13T00:51:28;4.15;;;1.63;;
23614;SDS011;11985;49.404;7.734;2023-07-13T00:56:35;4.05;;;1.65;;
23614;SDS011;11985;49.404;7.734;2023-07-13T01:01:38;3.72;;;1.80;;
23614;SDS011;11985;49.404;7.734;2023-07-13T01:06:40;3.55;;;1.92;;
23614;SDS011;11985;49.404;7.734;2023-07-13T01:11:45;6.97;;;1.83;;
23614;SDS011;11985;49.404;7.734;2023-07-13T01:16:49;8.38;;;1.85;;
23614;SDS011;11985;49.404;7.734;2023-07-13T01:21:53;9.03;;;2.33;;
23614;SDS011;11985;49.404;7.734;2023-07-13T01:26:54;5.53;;;2.05;;
23614;SDS011;11985;49.404;7.734;2023-07-13T01:31:56;4.45;;;1.88;;
23614;SDS011;11985;49.404;7.734;2023-07-13T01:36:59;4.53;;;1.95;;
23614;SDS011;11985;49.404;7.734;2023-07-13T01:42:01;7.22;;;1.90;;
23614;SDS011;11985;49.404;7.734;2023-07-13T01:47:03;3.58;;;2.20;;
23614;SDS011;11985;49.404;7.734;2023-07-13T01:52:06;6.57;;;2.40;;
23614;SDS011;11985;49.404;7.734;2023-07-13T01:57:08;4.05;;;2.15;;
23614;SDS011;11985;49.404;7.734;2023-07-13T02:02:10;4.53;;;2.20;;
23614;SDS011;11985;49.404;7.734;2023-07-13T02:07:13;8.52;;;2.10;;
23614;SDS011;11985;49.404;7.734;2023-07-13T02:12:15;6.57;;;2.40;;
23614;SDS011;11985;49.404;7.734;2023-07-13T02:17:17;4.30;;;2.22;;
23614;SDS011;11985;49.404;7.734;2023-07-13T02:22:20;4.35;;;2.10;;
23614;SDS011;11985;49.404;7.734;2023-07-13T02:27:21;8.10;;;2.25;;
23614;SDS011;11985;49.404;7.734;2023-07-13T02:32:23;5.55;;;1.77;;
23614;SDS011;11985;49.404;7.734;2023-07-13T02:37:27;8.00;;;2.72;;
23614;SDS011;11985;49.404;7.734;2023-07-13T02:42:29;5.25;;;2.35;;
23614;SDS011;11985;49.404;7.734;2023-07-13T02:47:31;6.82;;;2.42;;
23614;SDS011;11985;49.404;7.734;2023-07-13T02:52:34;3.13;;;2.28;;
23614;SDS011;11985;49.404;7.734;2023-07-13T02:57:36;5.90;;;2.30;;
23614;SDS011;11985;49.404;7.734;2023-07-13T03:02:38;4.43;;;2.25;;
23614;SDS011;11985;49.404;7.734;2023-07-13T03:07:41;3.72;;;2.50;;
23614;SDS011;11985;49.404;7.734;2023-07-13T03:12:43;5.45;;;2.42;;
23614;SDS011;11985;49.404;7.734;2023-07-13T03:17:45;5.15;;;2.33;;
23614;SDS011;11985;49.404;7.734;2023-07-13T03:22:49;4.45;;;2.20;;
23614;SDS011;11985;49.404;7.734;2023-07-13T03:27:51;7.68;;;2.13;;
23614;SDS011;11985;49.404;7.734;2023-07-13T03:32:52;2.20;;;2.00;;
23614;SDS011;11985;49.404;7.734;2023-07-13T03:37:55;3.95;;;2.20;;
23614;SDS011;11985;49.404;7.734;2023-07-13T03:48:02;6.28;;;2.20;;
23614;SDS011;11985;49.404;7.734;2023-07-13T03:53:06;8.02;;;2.53;;
23614;SDS011;11985;49.404;7.734;2023-07-13T03:58:24;5.07;;;2.00;;
23614;SDS011;11985;49.404;7.734;2023-07-13T04:03:31;5.10;;;2.28;;
23614;SDS011;11985;49.404;7.734;2023-07-13T04:08:36;5.93;;;1.75;;
23614;SDS011;11985;49.404;7.734;2023-07-13T04:13:37;7.27;;;2.80;;
23614;SDS011;11985;49.404;7.734;2023-07-13T04:18:39;11.13;;;2.33;;
23614;SDS011;11985;49.404;7.734;2023-07-13T04:23:42;5.30;;;2.00;;
23614;SDS011;11985;49.404;7.734;2023-07-13T04:28:44;4.15;;;1.92;;
23614;SDS011;11985;49.404;7.734;2023-07-13T04:33:46;4.07;;;2.30;;
23614;SDS011;11985;49.404;7.734;2023-07-13T04:38:49;4.70;;;2.17;;
23614;SDS011;11985;49.404;7.734;2023-07-13T04:43:50;6.15;;;2.35;;
23614;SDS011;11985;49.404;7.734;2023-07-13T04:48:52;8.05;;;2.50;;
23614;SDS011;11985;49.404;7.734;2023-07-13T04:53:55;7.80;;;2.95;;
23614;SDS011;11985;49.404;7.734;2023-07-13T04:58:57;14.48;;;3.10;;
23614;SDS011;11985;49.404;7.734;2023-07-13T05:03:59;3.63;;;2.42;;
23614;SDS011;11985;49.404;7.734;2023-07-13T05:09:02;4.80;;;2.50;;
23614;SDS011;11985;49.404;7.734;2023-07-13T05:14:04;3.72;;;1.98;;
23614;SDS011;11985;49.404;7.734;2023-07-13T05:19:05;5.53;;;2.00;;
23614;SDS011;11985;49.404;7.734;2023-07-13T05:24:08;3.15;;;2.08;;
23614;SDS011;11985;49.404;7.734;2023-07-13T05:29:11;6.13;;;2.00;;
23614;SDS011;11985;49.404;7.734;2023-07-13T05:34:12;4.45;;;2.08;;
23614;SDS011;11985;49.404;7.734;2023-07-13T05:39:16;7.95;;;2.15;;
23614;SDS011;11985;49.404;7.734;2023-07-13T05:44:17;6.05;;;2.42;;
23614;SDS011;11985;49.404;7.734;2023-07-13T05:49:20;2.53;;;2.00;;
23614;SDS011;11985;49.404;7.734;2023-07-13T05:54:24;3.35;;;1.73;;
23614;SDS011;11985;49.404;7.734;2023-07-13T05:59:25;3.05;;;1.52;;
23614;SDS011;11985;49.404;7.734;2023-07-13T06:04:27;2.53;;;1.55;;
23614;SDS011;11985;49.404;7.734;2023-07-13T06:09:30;5.82;;;1.63;;
23614;SDS011;11985;49.404;7.734;2023-07-13T06:14:31;3.25;;;1.40;;
23614;SDS011;11985;49.404;7.734;2023-07-13T06:19:33;5.07;;;1.60;;
23614;SDS011;11985;49.404;7.734;2023-07-13T06:24:37;3.22;;;1.40;;
23614;SDS011;11985;49.404;7.734;2023-07-13T06:29:38;3.00;;;1.60;;
23614;SDS011;11985;49.404;7.734;2023-07-13T06:34:40;3.97;;;1.40;;
23614;SDS011;11985;49.404;7.734;2023-07-13T06:39:43;7.78;;;1.80;;
23614;SDS011;11985;49.404;7.734;2023-07-13T06:44:45;2.22;;;1.20;;
23614;SDS011;11985;49.404;7.734;2023-07-13T06:49:47;5.10;;;1.48;;
23614;SDS011;11985;49.404;7.734;2023-07-13T06:54:50;6.85;;;1.58;;
23614;SDS011;11985;49.404;7.734;2023-07-13T06:59:52;16.58;;;1.67;;
23614;SDS011;11985;49.404;7.734;2023-07-13T07:04:53;3.40;;;1.33;;
23614;SDS011;11985;49.404;7.734;2023-07-13T07:09:56;5.28;;;1.20;;
23614;SDS011;11985;49.404;7.734;2023-07-13T07:14:58;6.80;;;1.10;;
23614;SDS011;11985;49.404;7.734;2023-07-13T07:19:59;4.20;;;1.00;;
23614;SDS011;11985;49.404;7.734;2023-07-13T07:25:03;6.25;;;1.10;;
23614;SDS011;11985;49.404;7.734;2023-07-13T07:30:05;4.60;;;1.20;;
23614;SDS011;11985;49.404;7.734;2023-07-13T07:35:08;4.05;;;1.35;;
23614;SDS011;11985;49.404;7.734;2023-07-13T07:40:11;4.43;;;1.30;;
23614;SDS011;11985;49.404;7.734;2023-07-13T07:45:13;6.40;;;1.65;;
23614;SDS011;11985;49.404;7.734;2023-07-13T07:50:15;4.30;;;1.70;;
23614;SDS011;11985;49.404;7.734;2023-07-13T07:55:18;4.97;;;1.17;;
23614;SDS011;11985;49.404;7.734;2023-07-13T08:00:20;8.43;;;1.40;;
23614;SDS011;11985;49.404;7.734;2023-07-13T08:05:22;5.93;;;1.45;;
23614;SDS011;11985;49.404;7.734;2023-07-13T08:10:25;5.53;;;1.20;;
23614;SDS011;11985;49.404;7.734;2023-07-13T08:15:27;7.47;;;1.50;;
23614;SDS011;11985;49.404;7.734;2023-07-13T08:20:29;2.30;;;1.30;;
23614;SDS011;11985;49.404;7.734;2023-07-13T08:25:32;5.53;;;1.40;;
23614;SDS011;11985;49.404;7.734;2023-07-13T08:30:33;4.18;;;1.23;;
23614;SDS011;11985;49.404;7.734;2023-07-13T08:35:36;4.68;;;1.40;;
23614;SDS011;11985;49.404;7.734;2023-07-13T08:40:39;5.30;;;1.23;;
23614;SDS011;11985;49.404;7.734;2023-07-13T08:45:43;6.35;;;1.40;;
23614;SDS011;11985;49.404;7.734;2023-07-13T08:55:58;4.38;;;1.30;;
23614;SDS011;11985;49.404;7.734;2023-07-13T09:01:02;2.63;;;1.00;;
23614;SDS011;11985;49.404;7.734;2023-07-13T09:06:14;3.45;;;1.25;;
23614;SDS011;11985;49.404;7.734;2023-07-13T09:11:26;7.05;;;1.23;;
23614;SDS011;11985;49.404;7.734;2023-07-13T09:16:37;3.10;;;1.00;;
23614;SDS011;11985;49.404;7.734;2023-07-13T09:21:41;7.28;;;1.30;;
23614;SDS011;11985;49.404;7.734;2023-07-13T09:26:46;4.20;;;1.30;;
23614;SDS011;11985;49.404;7.734;2023-07-13T09:31:49;5.40;;;1.10;;
23614;SDS011;11985;49.404;7.734;2023-07-13T09:36:55;3.22;;;1.10;;
23614;SDS011;11985;49.404;7.734;2023-07-13T09:42:00;6.90;;;1.20;;
23614;SDS011;11985;49.404;7.734;2023-07-13T09:47:15;6.85;;;1.10;;
23614;SDS011;11985;49.404;7.734;2023-07-13T09:52:18;5.82;;;1.25;;
23614;SDS011;11985;49.404;7.734;2023-07-13T09:57:22;3.25;;;1.30;;
23614;SDS011;11985;49.404;7.734;2023-07-13T10:02:26;3.38;;;1.08;;
23614;SDS011;11985;49.404;7.734;2023-07-13T10:07:30;4.45;;;0.98;;
23614;SDS011;11985;49.404;7.734;2023-07-13T10:12:35;4.63;;;1.20;;
23614;SDS011;11985;49.404;7.734;2023-07-13T10:17:38;5.55;;;1.23;;
23614;SDS011;11985;49.404;7.734;2023-07-13T10:22:42;5.15;;;1.30;;
23614;SDS011;11985;49.404;7.734;2023-07-13T10:27:54;3.30;;;1.00;;
23614;SDS011;11985;49.404;7.734;2023-07-13T10:33:02;6.93;;;1.63;;
23614;SDS011;11985;49.404;7.734;2023-07-13T10:38:11;3.58;;;1.23;;
23614;SDS011;11985;49.404;7.734;2023-07-13T10:43:17;5.32;;;1.27;;
23614;SDS011;11985;49.404;7.734;2023-07-13T10:48:23;3.58;;;1.33;;
23614;SDS011;11985;49.404;7.734;2023-07-13T10:53:27;3.70;;;1.00;;
23614;SDS011;11985;49.404;7.734;2023-07-13T10:58:33;4.78;;;1.50;;
23614;SDS011;11985;49.404;7.734;2023-07-13T11:03:36;7.63;;;1.38;;
23614;SDS011;11985;49.404;7.734;2023-07-13T11:08:51;3.53;;;1.30;;
23614;SDS011;11985;49.404;7.734;2023-07-13T11:13:58;5.23;;;1.67;;
23614;SDS011;11985;49.404;7.734;2023-07-13T11:24:52;2.15;;;1.15;;
23614;SDS011;11985;49.404;7.734;2023-07-13T11:30:09;6.15;;;1.30;;
23614;SDS011;11985;49.404;7.734;2023-07-13T11:35:22;4.32;;;1.58;;
23614;SDS011;11985;49.404;7.734;2023-07-13T11:40:25;4.32;;;1.30;;
23614;SDS011;11985;49.404;7.734;2023-07-13T11:45:31;4.47;;;1.30;;
23614;SDS011;11985;49.404;7.734;2023-07-13T11:50:32;3.08;;;1.13;;
23614;SDS011;11985;49.404;7.734;2023-07-13T11:55:34;3.78;;;1.27;;
23614;SDS011;11985;49.404;7.734;2023-07-13T12:05:54;2.88;;;1.30;;
23614;SDS011;11985;49.404;7.734;2023-07-13T12:11:01;2.38;;;1.40;;
23614;SDS011;11985;49.404;7.734;2023-07-13T12:16:14;3.90;;;1.30;;
23614;SDS011;11985;49.404;7.734;2023-07-13T12:21:18;4.32;;;1.27;;
23614;SDS011;11985;49.404;7.734;2023-07-13T12:26:21;5.37;;;1.33;;
23614;SDS011;11985;49.404;7.734;2023-07-13T12:31:25;3.22;;;1.33;;
23614;SDS011;11985;49.404;7.734;2023-07-13T12:36:33;5.88;;;1.45;;
23614;SDS011;11985;49.404;7.734;2023-07-13T12:41:35;4.80;;;1.40;;
23614;SDS011;11985;49.404;7.734;2023-07-13T12:46:38;2.60;;;1.20;;
23614;SDS011;11985;49.404;7.734;2023-07-13T12:51:40;3.85;;;1.40;;
23614;SDS011;11985;49.404;7.734;2023-07-13T12:56:42;5.43;;;1.00;;
23614;SDS011;11985;49.404;7.734;2023-07-13T13:01:46;3.33;;;1.00;;
23614;SDS011;11985;49.404;7.734;2023-07-13T13:06:58;4.38;;;1.27;;
23614;SDS011;11985;49.404;7.734;2023-07-13T13:12:02;2.78;;;1.10;;
23614;SDS011;11985;49.404;7.734;2023-07-13T13:17:11;2.70;;;1.17;;
23614;SDS011;11985;49.404;7.734;2023-07-13T13:22:20;6.10;;;1.38;;
23614;SDS011;11985;49.404;7.734;2023-07-13T13:27:22;4.20;;;1.30;;
23614;SDS011;11985;49.404;7.734;2023-07-13T13:32:26;4.47;;;1.15;;
23614;SDS011;11985;49.404;7.734;2023-07-13T13:37:27;2.17;;;1.17;;
23614;SDS011;11985;49.404;7.734;2023-07-13T13:42:29;4.40;;;1.23;;
23614;SDS011;11985;49.404;7.734;2023-07-13T13:47:32;3.50;;;1.00;;
23614;SDS011;11985;49.404;7.734;2023-07-13T13:52:36;3.58;;;1.27;;
23614;SDS011;11985;49.404;7.734;2023-07-13T13:57:37;9.95;;;1.17;;
23614;SDS011;11985;49.404;7.734;2023-07-13T14:02:40;4.22;;;1.42;;
23614;SDS011;11985;49.404;7.734;2023-07-13T14:07:43;5.03;;;1.33;;
23614;SDS011;11985;49.404;7.734;2023-07-13T14:12:46;3.35;;;1.40;;
23614;SDS011;11985;49.404;7.734;2023-07-13T14:17:53;6.18;;;1.35;;
23614;SDS011;11985;49.404;7.734;2023-07-13T14:22:54;5.75;;;1.13;;
23614;SDS011;11985;49.404;7.734;2023-07-13T14:27:57;3.55;;;1.27;;
23614;SDS011;11985;49.404;7.734;2023-07-13T14:33:04;6.07;;;1.38;;
23614;SDS011;11985;49.404;7.734;2023-07-13T14:38:10;3.53;;;1.35;;
23614;SDS011;11985;49.404;7.734;2023-07-13T14:43:14;4.65;;;1.27;;
23614;SDS011;11985;49.404;7.734;2023-07-13T14:48:20;4.78;;;1.40;;
23614;SDS011;11985;49.404;7.734;2023-07-13T14:53:24;2.22;;;1.10;;
23614;SDS011;11985;49.404;7.734;2023-07-13T14:58:27;6.22;;;1.25;;
23614;SDS011;11985;49.404;7.734;2023-07-13T15:03:30;2.45;;;1.10;;
23614;SDS011;11985;49.404;7.734;2023-07-13T15:08:32;3.20;;;1.17;;
23614;SDS011;11985;49.404;7.734;2023-07-13T15:13:34;3.67;;;1.10;;
23614;SDS011;11985;49.404;7.734;2023-07-13T15:18:38;1.88;;;1.00;;
23614;SDS011;11985;49.404;7.734;2023-07-13T15:23:40;2.40;;;1.27;;
23614;SDS011;11985;49.404;7.734;2023-07-13T15:28:42;2.88;;;1.10;;
23614;SDS011;11985;49.404;7.734;2023-07-13T15:33:46;3.35;;;1.00;;
23614;SDS011;11985;49.404;7.734;2023-07-13T15:38:50;3.97;;;1.10;;
23614;SDS011;11985;49.404;7.734;2023-07-13T15:43:54;3.58;;;1.10;;
23614;SDS011;11985;49.404;7.734;2023-07-13T15:48:59;3.10;;;1.02;;
23614;SDS011;11985;49.404;7.734;2023-07-13T15:54:02;6.13;;;0.90;;
23614;SDS011;11985;49.404;7.734;2023-07-13T15:59:05;2.80;;;1.00;;
23614;SDS011;11985;49.404;7.734;2023-07-13T16:04:08;4.00;;;1.55;;
23614;SDS011;11985;49.404;7.734;2023-07-13T16:09:10;2.63;;;1.10;;
23614;SDS011;11985;49.404;7.734;2023-07-13T16:14:19;3.78;;;1.27;;
23614;SDS011;11985;49.404;7.734;2023-07-13T16:19:26;2.25;;;0.98;;
23614;SDS011;11985;49.404;7.734;2023-07-13T16:24:30;4.53;;;1.00;;
23614;SDS011;11985;49.404;7.734;2023-07-13T16:29:32;2.95;;;0.90;;
23614;SDS011;11985;49.404;7.734;2023-07-13T16:34:36;7.72;;;1.38;;
23614;SDS011;11985;49.404;7.734;2023-07-13T16:39:41;2.55;;;0.75;;
23614;SDS011;11985;49.404;7.734;2023-07-13T16:44:46;5.20;;;1.10;;
23614;SDS011;11985;49.404;7.734;2023-07-13T16:49:49;3.28;;;0.93;;
23614;SDS011;11985;49.404;7.734;2023-07-13T16:54:51;3.65;;;1.05;;
23614;SDS011;11985;49.404;7.734;2023-07-13T16:59:53;5.35;;;1.35;;
23614;SDS011;11985;49.404;7.734;2023-07-13T17:04:58;4.47;;;1.27;;
23614;SDS011;11985;49.404;7.734;2023-07-13T17:10:00;2.93;;;1.10;;
23614;SDS011;11985;49.404;7.734;2023-07-13T17:15:03;2.15;;;1.10;;
23614;SDS011;11985;49.404;7.734;2023-07-13T17:20:18;3.83;;;1.27;;
23614;SDS011;11985;49.404;7.734;2023-07-13T17:25:26;3.47;;;1.27;;
23614;SDS011;11985;49.404;7.734;2023-07-13T17:30:30;7.47;;;1.23;;
23614;SDS011;11985;49.404;7.734;2023-07-13T17:35:34;3.70;;;1.10;;
23614;SDS011;11985;49.404;7.734;2023-07-13T17:40:37;3.03;;;1.00;;
23614;SDS011;11985;49.404;7.734;2023-07-13T17:45:40;4.07;;;1.20;;
23614;SDS011;11985;49.404;7.734;2023-07-13T17:50:44;4.40;;;1.02;;
23614;SDS011;11985;49.404;7.734;2023-07-13T17:55:49;4.65;;;1.23;;
23614;SDS011;11985;49.404;7.734;2023-07-13T18:00:51;1.98;;;1.02;;
23614;SDS011;11985;49.404;7.734;2023-07-13T18:05:56;3.25;;;1.20;;
23614;SDS011;11985;49.404;7.734;2023-07-13T18:10:58;2.63;;;1.20;;
23614;SDS011;11985;49.404;7.734;2023-07-13T18:16:02;3.83;;;1.20;;
23614;SDS011;11985;49.404;7.734;2023-07-13T18:21:06;9.25;;;1.70;;
23614;SDS011;11985;49.404;7.734;2023-07-13T18:26:09;1.85;;;0.90;;
23614;SDS011;11985;49.404;7.734;2023-07-13T18:31:12;2.67;;;1.00;;
23614;SDS011;11985;49.404;7.734;2023-07-13T18:36:20;4.90;;;1.27;;
23614;SDS011;11985;49.404;7.734;2023-07-13T18:41:23;8.02;;;1.33;;
23614;SDS011;11985;49.404;7.734;2023-07-13T18:46:25;3.92;;;1.40;;
23614;SDS011;11985;49.404;7.734;2023-07-13T18:51:31;4.35;;;1.35;;
23614;SDS011;11985;49.404;7.734;2023-07-13T18:56:33;4.00;;;1.30;;
23614;SDS011;11985;49.404;7.734;2023-07-13T19:01:36;4.15;;;1.23;;
23614;SDS011;11985;49.404;7.734;2023-07-13T19:06:39;4.75;;;1.33;;
23614;SDS011;11985;49.404;7.734;2023-07-13T19:11:40;4.20;;;1.00;;
23614;SDS011;11985;49.404;7.734;2023-07-13T19:16:42;4.85;;;1.40;;
23614;SDS011;11985;49.404;7.734;2023-07-13T19:21:46;5.28;;;1.60;;
23614;SDS011;11985;49.404;7.734;2023-07-13T19:26:49;3.75;;;1.30;;
23614;SDS011;11985;49.404;7.734;2023-07-13T19:31:52;2.92;;;1.17;;
23614;SDS011;11985;49.404;7.734;2023-07-13T19:36:57;3.55;;;1.33;;
23614;SDS011;11985;49.404;7.734;2023-07-13T19:42:02;1.92;;;1.15;;
23614;SDS011;11985;49.404;7.734;2023-07-13T19:52:13;14.93;;;1.35;;
23614;SDS011;11985;49.404;7.734;2023-07-13T19:57:16;7.13;;;1.30;;
23614;SDS011;11985;49.404;7.734;2023-07-13T20:02:19;7.25;;;2.20;;
23614;SDS011;11985;49.404;7.734;2023-07-13T20:07:23;2.53;;;1.13;;
23614;SDS011;11985;49.404;7.734;2023-07-13T20:12:25;8.50;;;1.35;;
23614;SDS011;11985;49.404;7.734;2023-07-13T20:17:28;3.95;;;1.20;;
23614;SDS011;11985;49.404;7.734;2023-07-13T20:22:35;6.03;;;1.33;;
23614;SDS011;11985;49.404;7.734;2023-07-13T20:27:36;5.43;;;1.40;;
23614;SDS011;11985;49.404;7.734;2023-07-13T20:32:38;4.00;;;1.50;;
23614;SDS011;11985;49.404;7.734;2023-07-13T20:37:41;3.40;;;1.52;;
23614;SDS011;11985;49.404;7.734;2023-07-13T20:42:45;4.32;;;1.55;;
23614;SDS011;11985;49.404;7.734;2023-07-13T20:47:49;6.45;;;1.52;;
23614;SDS011;11985;49.404;7.734;2023-07-13T20:52:57;3.63;;;1.45;;
23614;SDS011;11985;49.404;7.734;2023-07-13T20:57:59;5.32;;;1.23;;
23614;SDS011;11985;49.404;7.734;2023-07-13T21:03:02;2.60;;;1.50;;
23614;SDS011;11985;49.404;7.734;2023-07-13T21:08:10;3.92;;;1.55;;
23614;SDS011;11985;49.404;7.734;2023-07-13T21:13:13;5.63;;;1.13;;
23614;SDS011;11985;49.404;7.734;2023-07-13T21:18:16;5.15;;;1.45;;
23614;SDS011;11985;49.404;7.734;2023-07-13T21:23:27;4.90;;;1.40;;
23614;SDS011;11985;49.404;7.734;2023-07-13T21:28:33;2.25;;;1.25;;
23614;SDS011;11985;49.404;7.734;2023-07-13T21:33:36;2.88;;;1.33;;
23614;SDS011;11985;49.404;7.734;2023-07-13T21:38:39;2.78;;;1.20;;
23614;SDS011;11985;49.404;7.734;2023-07-13T21:43:42;6.45;;;1.48;;
23614;SDS011;11985;49.404;7.734;2023-07-13T21:48:44;4.32;;;1.20;;
23614;SDS011;11985;49.404;7.734;2023-07-13T21:53:48;3.03;;;1.42;;
23614;SDS011;11985;49.404;7.734;2023-07-13T21:58:51;5.95;;;1.63;;
23614;SDS011;11985;49.404;7.734;2023-07-13T22:03:54;3.42;;;1.30;;
23614;SDS011;11985;49.404;7.734;2023-07-13T22:08:58;5.18;;;1.98;;
23614;SDS011;11985;49.404;7.734;2023-07-13T22:14:00;4.55;;;1.73;;
23614;SDS011;11985;49.404;7.734;2023-07-13T22:19:05;3.10;;;1.45;;
23614;SDS011;11985;49.404;7.734;2023-07-13T22:24:14;2.40;;;1.10;;
23614;SDS011;11985;49.404;7.734;2023-07-13T22:29:18;1.85;;;1.30;;
23614;SDS011;11985;49.404;7.734;2023-07-13T22:34:23;3.55;;;1.50;;
23614;SDS011;11985;49.404;7.734;2023-07-13T22:39:27;7.57;;;1.38;;
23614;SDS011;11985;49.404;7.734;2023-07-13T22:44:32;3.50;;;1.38;;
23614;SDS011;11985;49.404;7.734;2023-07-13T22:49:34;11.27;;;1.55;;
23614;SDS011;11985;49.404;7.734;2023-07-13T22:54:38;3.15;;;1.60;;
23614;SDS011;11985;49.404;7.734;2023-07-13T22:59:41;2.90;;;1.63;;
23614;SDS011;11985;49.404;7.734;2023-07-13T23:04:42;3.47;;;1.40;;
23614;SDS011;11985;49.404;7.734;2023-07-13T23:09:49;8.60;;;1.48;;
23614;SDS011;11985;49.404;7.734;2023-07-13T23:14:51;5.93;;;1.70;;
23614;SDS011;11985;49.404;7.734;2023-07-13T23:19:52;3.08;;;1.65;;
23614;SDS011;11985;49.404;7.734;2023-07-13T23:24:55;3.58;;;1.30;;
23614;SDS011;11985;49.404;7.734;2023-07-13T23:29:57;3.72;;;1.73;;
23614;SDS011;11985;49.404;7.734;2023-07-13T23:34:58;4.32;;;1.38;;
23614;SDS011;11985;49.404;7.734;2023-07-13T23:40:04;3.95;;;1.40;;
23614;SDS011;11985;49.404;7.734;2023-07-13T23:45:14;5.22;;;1.52;;
23614;SDS011;11985;49.404;7.734;2023-07-13T23:50:18;3.53;;;1.40;;
23614;SDS011;11985;49.404;7.734;2023-07-13T23:55:23;1.90;;;1.30;;
